sensor_id;sensor_type;location;lat;lon;timestamp;temperature;humidity
40756;DHT22;26461;45.630;9.418;2022-07-23T00:00:08;31.00;55.50
40756;DHT22;26461;45.630;9.418;2022-07-23T00:03:29;30.90;55.60
40756;DHT22;26461;45.630;9.418;2022-07-23T00:06:43;30.80;55.80
40756;DHT22;26461;45.630;9.418;2022-07-23T00:09:55;30.80;55.60
40756;DHT22;26461;45.630;9.418;2022-07-23T00:13:13;30.60;55.70
40756;DHT22;26461;45.630;9.418;2022-07-23T00:16:41;30.60;55.80
40756;DHT22;26461;45.630;9.418;2022-07-23T00:20:01;30.50;55.90
40756;DHT22;26461;45.630;9.418;2022-07-23T00:23:25;30.50;55.80
40756;DHT22;26461;45.630;9.418;2022-07-23T00:26:47;30.50;55.90
40756;DHT22;26461;45.630;9.418;2022-07-23T00:30:04;30.50;55.70
40756;DHT22;26461;45.630;9.418;2022-07-23T00:33:18;30.50;56.20
40756;DHT22;26461;45.630;9.418;2022-07-23T00:36:35;30.60;55.20
40756;DHT22;26461;45.630;9.418;2022-07-23T00:39:53;30.60;54.90
40756;DHT22;26461;45.630;9.418;2022-07-23T00:43:10;30.50;54.90
40756;DHT22;26461;45.630;9.418;2022-07-23T00:46:25;30.50;54.50
40756;DHT22;26461;45.630;9.418;2022-07-23T00:49:47;30.50;54.50
40756;DHT22;26461;45.630;9.418;2022-07-23T00:52:59;30.50;54.60
40756;DHT22;26461;45.630;9.418;2022-07-23T00:56:13;30.50;54.40
40756;DHT22;26461;45.630;9.418;2022-07-23T00:59:32;30.50;54.60
40756;DHT22;26461;45.630;9.418;2022-07-23T01:02:43;30.60;54.70
40756;DHT22;26461;45.630;9.418;2022-07-23T01:06:00;30.50;54.80
40756;DHT22;26461;45.630;9.418;2022-07-23T01:09:06;30.50;54.80
40756;DHT22;26461;45.630;9.418;2022-07-23T01:12:12;30.40;54.90
40756;DHT22;26461;45.630;9.418;2022-07-23T01:15:30;30.40;55.10
40756;DHT22;26461;45.630;9.418;2022-07-23T01:18:55;30.40;55.20
40756;DHT22;26461;45.630;9.418;2022-07-23T01:22:07;30.40;55.30
40756;DHT22;26461;45.630;9.418;2022-07-23T01:25:25;30.30;55.20
40756;DHT22;26461;45.630;9.418;2022-07-23T01:28:50;30.30;55.30
40756;DHT22;26461;45.630;9.418;2022-07-23T01:32:10;30.30;55.30
40756;DHT22;26461;45.630;9.418;2022-07-23T01:35:26;30.40;55.40
40756;DHT22;26461;45.630;9.418;2022-07-23T01:38:52;30.40;55.40
40756;DHT22;26461;45.630;9.418;2022-07-23T01:42:03;30.40;55.40
40756;DHT22;26461;45.630;9.418;2022-07-23T01:45:21;30.40;55.60
40756;DHT22;26461;45.630;9.418;2022-07-23T01:48:53;30.40;55.80
40756;DHT22;26461;45.630;9.418;2022-07-23T01:52:25;30.40;56.10
40756;DHT22;26461;45.630;9.418;2022-07-23T01:55:43;30.40;56.20
40756;DHT22;26461;45.630;9.418;2022-07-23T01:58:55;30.40;56.40
40756;DHT22;26461;45.630;9.418;2022-07-23T02:02:12;30.40;56.60
40756;DHT22;26461;45.630;9.418;2022-07-23T02:05:31;30.40;56.50
40756;DHT22;26461;45.630;9.418;2022-07-23T02:08:48;30.40;56.60
40756;DHT22;26461;45.630;9.418;2022-07-23T02:12:04;30.40;56.20
40756;DHT22;26461;45.630;9.418;2022-07-23T02:15:16;30.40;56.00
40756;DHT22;26461;45.630;9.418;2022-07-23T02:18:22;30.40;56.20
40756;DHT22;26461;45.630;9.418;2022-07-23T02:21:45;30.30;55.90
40756;DHT22;26461;45.630;9.418;2022-07-23T02:24:54;30.30;55.80
40756;DHT22;26461;45.630;9.418;2022-07-23T02:28:03;30.30;55.80
40756;DHT22;26461;45.630;9.418;2022-07-23T02:31:20;30.30;55.50
40756;DHT22;26461;45.630;9.418;2022-07-23T02:34:25;30.30;55.20
40756;DHT22;26461;45.630;9.418;2022-07-23T02:37:37;30.30;55.00
40756;DHT22;26461;45.630;9.418;2022-07-23T02:40:54;30.30;54.80
40756;DHT22;26461;45.630;9.418;2022-07-23T02:44:08;30.40;54.60
40756;DHT22;26461;45.630;9.418;2022-07-23T02:47:27;30.40;54.20
40756;DHT22;26461;45.630;9.418;2022-07-23T02:50:43;30.40;53.80
40756;DHT22;26461;45.630;9.418;2022-07-23T02:53:59;30.40;53.30
40756;DHT22;26461;45.630;9.418;2022-07-23T02:57:12;30.40;53.20
40756;DHT22;26461;45.630;9.418;2022-07-23T03:00:25;30.40;52.70
40756;DHT22;26461;45.630;9.418;2022-07-23T03:03:43;30.30;52.50
40756;DHT22;26461;45.630;9.418;2022-07-23T03:06:59;30.30;51.80
40756;DHT22;26461;45.630;9.418;2022-07-23T03:10:12;30.30;51.20
40756;DHT22;26461;45.630;9.418;2022-07-23T03:13:34;30.20;50.90
40756;DHT22;26461;45.630;9.418;2022-07-23T03:16:46;30.20;51.10
40756;DHT22;26461;45.630;9.418;2022-07-23T03:19:52;30.10;51.20
40756;DHT22;26461;45.630;9.418;2022-07-23T03:22:59;30.10;51.40
40756;DHT22;26461;45.630;9.418;2022-07-23T03:26:10;30.10;51.70
40756;DHT22;26461;45.630;9.418;2022-07-23T03:29:21;30.00;51.80
40756;DHT22;26461;45.630;9.418;2022-07-23T03:32:33;30.00;51.90
40756;DHT22;26461;45.630;9.418;2022-07-23T03:35:46;29.90;51.90
40756;DHT22;26461;45.630;9.418;2022-07-23T03:39:09;29.90;52.20
40756;DHT22;26461;45.630;9.418;2022-07-23T03:42:19;29.80;52.50
40756;DHT22;26461;45.630;9.418;2022-07-23T03:45:29;29.80;52.80
40756;DHT22;26461;45.630;9.418;2022-07-23T03:48:36;29.80;53.20
40756;DHT22;26461;45.630;9.418;2022-07-23T03:51:42;29.70;53.50
40756;DHT22;26461;45.630;9.418;2022-07-23T03:54:49;29.70;53.80
40756;DHT22;26461;45.630;9.418;2022-07-23T03:58:04;29.70;54.00
40756;DHT22;26461;45.630;9.418;2022-07-23T04:01:16;29.70;54.20
40756;DHT22;26461;45.630;9.418;2022-07-23T04:04:35;29.70;54.40
40756;DHT22;26461;45.630;9.418;2022-07-23T04:07:45;29.60;54.40
40756;DHT22;26461;45.630;9.418;2022-07-23T04:10:51;29.40;54.60
40756;DHT22;26461;45.630;9.418;2022-07-23T04:13:59;29.30;54.90
40756;DHT22;26461;45.630;9.418;2022-07-23T04:17:12;29.20;55.30
40756;DHT22;26461;45.630;9.418;2022-07-23T04:20:27;29.20;55.60
40756;DHT22;26461;45.630;9.418;2022-07-23T04:23:42;29.10;55.60
40756;DHT22;26461;45.630;9.418;2022-07-23T04:26:56;29.00;55.70
40756;DHT22;26461;45.630;9.418;2022-07-23T04:30:09;29.00;55.80
40756;DHT22;26461;45.630;9.418;2022-07-23T04:33:20;29.00;55.70
40756;DHT22;26461;45.630;9.418;2022-07-23T04:36:43;29.00;55.70
40756;DHT22;26461;45.630;9.418;2022-07-23T04:39:54;29.10;55.50
40756;DHT22;26461;45.630;9.418;2022-07-23T04:43:06;29.10;55.50
40756;DHT22;26461;45.630;9.418;2022-07-23T04:46:23;29.10;55.30
40756;DHT22;26461;45.630;9.418;2022-07-23T04:49:38;29.10;55.30
40756;DHT22;26461;45.630;9.418;2022-07-23T04:52:50;29.10;55.20
40756;DHT22;26461;45.630;9.418;2022-07-23T04:56:05;29.20;55.20
40756;DHT22;26461;45.630;9.418;2022-07-23T04:59:25;29.20;55.30
40756;DHT22;26461;45.630;9.418;2022-07-23T05:02:41;29.30;55.20
40756;DHT22;26461;45.630;9.418;2022-07-23T05:05:55;29.30;55.20
40756;DHT22;26461;45.630;9.418;2022-07-23T05:09:09;29.40;55.20
40756;DHT22;26461;45.630;9.418;2022-07-23T05:12:29;29.40;55.20
40756;DHT22;26461;45.630;9.418;2022-07-23T05:15:52;29.50;55.20
40756;DHT22;26461;45.630;9.418;2022-07-23T05:19:09;29.50;55.10
40756;DHT22;26461;45.630;9.418;2022-07-23T05:22:24;29.50;55.10
40756;DHT22;26461;45.630;9.418;2022-07-23T05:25:35;29.60;55.10
40756;DHT22;26461;45.630;9.418;2022-07-23T05:28:51;29.60;55.00
40756;DHT22;26461;45.630;9.418;2022-07-23T05:32:00;29.60;55.10
40756;DHT22;26461;45.630;9.418;2022-07-23T05:35:14;29.50;57.00
40756;DHT22;26461;45.630;9.418;2022-07-23T05:38:43;29.20;56.80
40756;DHT22;26461;45.630;9.418;2022-07-23T05:41:56;29.00;57.10
40756;DHT22;26461;45.630;9.418;2022-07-23T05:45:09;28.70;57.50
40756;DHT22;26461;45.630;9.418;2022-07-23T05:48:23;28.60;57.70
40756;DHT22;26461;45.630;9.418;2022-07-23T05:51:47;28.60;57.90
40756;DHT22;26461;45.630;9.418;2022-07-23T05:55:02;28.50;58.10
40756;DHT22;26461;45.630;9.418;2022-07-23T05:58:10;28.50;58.50
40756;DHT22;26461;45.630;9.418;2022-07-23T06:01:26;28.50;58.10
40756;DHT22;26461;45.630;9.418;2022-07-23T06:04:55;28.50;58.10
40756;DHT22;26461;45.630;9.418;2022-07-23T06:08:17;28.40;58.30
40756;DHT22;26461;45.630;9.418;2022-07-23T06:11:29;28.50;58.20
40756;DHT22;26461;45.630;9.418;2022-07-23T06:14:35;28.40;58.40
40756;DHT22;26461;45.630;9.418;2022-07-23T06:17:49;28.50;58.50
40756;DHT22;26461;45.630;9.418;2022-07-23T06:21:03;28.50;58.60
40756;DHT22;26461;45.630;9.418;2022-07-23T06:24:11;28.50;58.60
40756;DHT22;26461;45.630;9.418;2022-07-23T06:27:27;28.60;58.90
40756;DHT22;26461;45.630;9.418;2022-07-23T06:30:35;28.60;58.50
40756;DHT22;26461;45.630;9.418;2022-07-23T06:33:42;28.50;58.40
40756;DHT22;26461;45.630;9.418;2022-07-23T06:36:58;28.50;58.60
40756;DHT22;26461;45.630;9.418;2022-07-23T06:40:16;28.60;58.70
40756;DHT22;26461;45.630;9.418;2022-07-23T06:43:32;28.60;58.60
40756;DHT22;26461;45.630;9.418;2022-07-23T06:46:40;28.60;58.70
40756;DHT22;26461;45.630;9.418;2022-07-23T06:49:54;28.60;58.70
40756;DHT22;26461;45.630;9.418;2022-07-23T06:53:05;28.60;58.30
40756;DHT22;26461;45.630;9.418;2022-07-23T06:56:19;28.70;58.50
40756;DHT22;26461;45.630;9.418;2022-07-23T06:59:33;28.70;58.50
40756;DHT22;26461;45.630;9.418;2022-07-23T07:02:47;28.70;58.30
40756;DHT22;26461;45.630;9.418;2022-07-23T07:05:59;28.80;58.30
40756;DHT22;26461;45.630;9.418;2022-07-23T07:09:10;28.80;58.30
40756;DHT22;26461;45.630;9.418;2022-07-23T07:12:22;28.90;58.10
40756;DHT22;26461;45.630;9.418;2022-07-23T07:15:28;28.90;58.30
40756;DHT22;26461;45.630;9.418;2022-07-23T07:18:42;29.00;57.60
40756;DHT22;26461;45.630;9.418;2022-07-23T07:21:54;29.10;57.60
40756;DHT22;26461;45.630;9.418;2022-07-23T07:25:10;29.10;57.50
40756;DHT22;26461;45.630;9.418;2022-07-23T07:28:20;29.20;57.30
40756;DHT22;26461;45.630;9.418;2022-07-23T07:31:27;29.20;57.20
40756;DHT22;26461;45.630;9.418;2022-07-23T07:34:46;29.30;57.10
40756;DHT22;26461;45.630;9.418;2022-07-23T07:37:59;29.30;56.70
40756;DHT22;26461;45.630;9.418;2022-07-23T07:41:05;29.40;56.20
40756;DHT22;26461;45.630;9.418;2022-07-23T07:44:17;29.40;56.20
40756;DHT22;26461;45.630;9.418;2022-07-23T07:47:30;29.50;56.00
40756;DHT22;26461;45.630;9.418;2022-07-23T07:50:36;29.50;55.90
40756;DHT22;26461;45.630;9.418;2022-07-23T07:53:50;29.60;55.80
40756;DHT22;26461;45.630;9.418;2022-07-23T07:57:07;29.70;55.70
40756;DHT22;26461;45.630;9.418;2022-07-23T08:00:18;29.70;55.50
40756;DHT22;26461;45.630;9.418;2022-07-23T08:03:34;29.70;55.10
40756;DHT22;26461;45.630;9.418;2022-07-23T08:06:40;29.80;54.30
40756;DHT22;26461;45.630;9.418;2022-07-23T08:09:46;29.80;54.40
40756;DHT22;26461;45.630;9.418;2022-07-23T08:13:06;29.90;53.90
40756;DHT22;26461;45.630;9.418;2022-07-23T08:16:18;30.00;53.40
40756;DHT22;26461;45.630;9.418;2022-07-23T08:19:25;30.00;52.80
40756;DHT22;26461;45.630;9.418;2022-07-23T08:25:57;30.10;52.80
40756;DHT22;26461;45.630;9.418;2022-07-23T08:29:06;30.20;52.80
40756;DHT22;26461;45.630;9.418;2022-07-23T08:32:12;30.20;52.90
40756;DHT22;26461;45.630;9.418;2022-07-23T08:35:38;30.30;52.60
40756;DHT22;26461;45.630;9.418;2022-07-23T08:38:47;30.40;52.00
40756;DHT22;26461;45.630;9.418;2022-07-23T08:41:56;30.50;52.10
40756;DHT22;26461;45.630;9.418;2022-07-23T08:45:08;30.50;52.90
40756;DHT22;26461;45.630;9.418;2022-07-23T08:48:21;30.60;53.10
40756;DHT22;26461;45.630;9.418;2022-07-23T08:51:28;30.60;53.70
40756;DHT22;26461;45.630;9.418;2022-07-23T08:54:38;30.50;53.50
40756;DHT22;26461;45.630;9.418;2022-07-23T08:57:46;30.50;54.80
40756;DHT22;26461;45.630;9.418;2022-07-23T09:01:02;30.50;55.20
40756;DHT22;26461;45.630;9.418;2022-07-23T09:04:37;30.50;54.80
40756;DHT22;26461;45.630;9.418;2022-07-23T09:08:15;30.50;53.70
40756;DHT22;26461;45.630;9.418;2022-07-23T09:11:35;30.50;53.30
40756;DHT22;26461;45.630;9.418;2022-07-23T09:14:48;30.60;54.00
40756;DHT22;26461;45.630;9.418;2022-07-23T09:17:55;30.60;55.60
40756;DHT22;26461;45.630;9.418;2022-07-23T09:24:21;30.70;54.30
40756;DHT22;26461;45.630;9.418;2022-07-23T09:28:00;30.70;53.40
40756;DHT22;26461;45.630;9.418;2022-07-23T09:31:20;30.80;53.30
40756;DHT22;26461;45.630;9.418;2022-07-23T09:34:34;30.90;54.60
40756;DHT22;26461;45.630;9.418;2022-07-23T09:38:05;31.10;52.80
40756;DHT22;26461;45.630;9.418;2022-07-23T09:41:22;31.20;52.50
40756;DHT22;26461;45.630;9.418;2022-07-23T09:44:44;31.30;52.40
40756;DHT22;26461;45.630;9.418;2022-07-23T09:48:11;31.40;51.80
40756;DHT22;26461;45.630;9.418;2022-07-23T09:51:21;31.40;50.80
40756;DHT22;26461;45.630;9.418;2022-07-23T09:55:01;31.50;50.80
40756;DHT22;26461;45.630;9.418;2022-07-23T09:58:13;31.50;50.70
40756;DHT22;26461;45.630;9.418;2022-07-23T10:01:33;31.50;51.10
40756;DHT22;26461;45.630;9.418;2022-07-23T10:04:45;31.50;51.20
40756;DHT22;26461;45.630;9.418;2022-07-23T10:08:12;31.50;51.00
40756;DHT22;26461;45.630;9.418;2022-07-23T10:11:42;31.50;51.30
40756;DHT22;26461;45.630;9.418;2022-07-23T10:15:14;31.50;51.10
40756;DHT22;26461;45.630;9.418;2022-07-23T10:18:23;31.50;51.60
40756;DHT22;26461;45.630;9.418;2022-07-23T10:21:52;31.60;52.90
40756;DHT22;26461;45.630;9.418;2022-07-23T10:25:24;31.70;51.90
40756;DHT22;26461;45.630;9.418;2022-07-23T10:36:42;31.90;51.80
40756;DHT22;26461;45.630;9.418;2022-07-23T10:40:12;32.10;51.30
40756;DHT22;26461;45.630;9.418;2022-07-23T10:43:19;32.10;50.90
40756;DHT22;26461;45.630;9.418;2022-07-23T10:47:03;32.10;50.60
40756;DHT22;26461;45.630;9.418;2022-07-23T10:51:06;32.10;51.10
40756;DHT22;26461;45.630;9.418;2022-07-23T10:54:23;32.20;50.20
40756;DHT22;26461;45.630;9.418;2022-07-23T10:57:46;32.20;49.60
40756;DHT22;26461;45.630;9.418;2022-07-23T11:00:56;32.20;50.10
40756;DHT22;26461;45.630;9.418;2022-07-23T11:04:06;32.20;51.30
40756;DHT22;26461;45.630;9.418;2022-07-23T11:07:20;32.30;51.50
40756;DHT22;26461;45.630;9.418;2022-07-23T11:10:42;32.30;51.20
40756;DHT22;26461;45.630;9.418;2022-07-23T11:13:53;32.30;51.30
40756;DHT22;26461;45.630;9.418;2022-07-23T11:17:21;32.40;51.50
40756;DHT22;26461;45.630;9.418;2022-07-23T11:20:41;32.50;51.40
40756;DHT22;26461;45.630;9.418;2022-07-23T11:24:09;32.50;51.60
40756;DHT22;26461;45.630;9.418;2022-07-23T11:27:46;32.60;50.90
40756;DHT22;26461;45.630;9.418;2022-07-23T11:30:58;32.60;51.80
40756;DHT22;26461;45.630;9.418;2022-07-23T11:34:43;32.60;51.10
40756;DHT22;26461;45.630;9.418;2022-07-23T11:38:16;32.60;52.20
40756;DHT22;26461;45.630;9.418;2022-07-23T11:41:22;32.50;52.80
40756;DHT22;26461;45.630;9.418;2022-07-23T11:44:39;32.30;51.90
40756;DHT22;26461;45.630;9.418;2022-07-23T11:47:48;32.40;51.90
40756;DHT22;26461;45.630;9.418;2022-07-23T11:51:04;32.40;51.30
40756;DHT22;26461;45.630;9.418;2022-07-23T11:54:18;32.40;51.20
40756;DHT22;26461;45.630;9.418;2022-07-23T11:57:39;32.40;50.50
40756;DHT22;26461;45.630;9.418;2022-07-23T12:00:54;32.30;51.50
40756;DHT22;26461;45.630;9.418;2022-07-23T12:04:12;32.50;51.30
40756;DHT22;26461;45.630;9.418;2022-07-23T12:07:36;32.30;50.80
40756;DHT22;26461;45.630;9.418;2022-07-23T12:10:54;32.30;51.20
40756;DHT22;26461;45.630;9.418;2022-07-23T12:14:04;32.40;51.20
40756;DHT22;26461;45.630;9.418;2022-07-23T12:17:19;32.40;51.10
40756;DHT22;26461;45.630;9.418;2022-07-23T12:20:40;32.40;51.90
40756;DHT22;26461;45.630;9.418;2022-07-23T12:24:06;32.50;51.40
40756;DHT22;26461;45.630;9.418;2022-07-23T12:27:30;32.50;52.40
40756;DHT22;26461;45.630;9.418;2022-07-23T12:33:50;32.70;53.10
40756;DHT22;26461;45.630;9.418;2022-07-23T12:37:27;32.80;53.10
40756;DHT22;26461;45.630;9.418;2022-07-23T12:40:51;32.80;53.00
40756;DHT22;26461;45.630;9.418;2022-07-23T12:44:16;32.90;52.80
40756;DHT22;26461;45.630;9.418;2022-07-23T12:47:22;33.00;53.40
40756;DHT22;26461;45.630;9.418;2022-07-23T12:50:51;33.00;53.70
40756;DHT22;26461;45.630;9.418;2022-07-23T12:54:07;33.10;53.40
40756;DHT22;26461;45.630;9.418;2022-07-23T12:57:46;33.10;53.80
40756;DHT22;26461;45.630;9.418;2022-07-23T13:01:07;33.20;53.70
40756;DHT22;26461;45.630;9.418;2022-07-23T13:04:22;33.30;53.90
40756;DHT22;26461;45.630;9.418;2022-07-23T13:07:36;33.30;54.00
40756;DHT22;26461;45.630;9.418;2022-07-23T13:10:48;33.30;54.00
40756;DHT22;26461;45.630;9.418;2022-07-23T13:14:02;33.30;53.90
40756;DHT22;26461;45.630;9.418;2022-07-23T13:17:08;33.30;53.90
40756;DHT22;26461;45.630;9.418;2022-07-23T13:20:22;33.30;54.10
40756;DHT22;26461;45.630;9.418;2022-07-23T13:23:38;33.40;54.20
40756;DHT22;26461;45.630;9.418;2022-07-23T13:26:55;33.40;53.50
40756;DHT22;26461;45.630;9.418;2022-07-23T13:30:02;33.40;53.40
40756;DHT22;26461;45.630;9.418;2022-07-23T13:33:20;33.40;53.60
40756;DHT22;26461;45.630;9.418;2022-07-23T13:36:36;33.50;54.00
40756;DHT22;26461;45.630;9.418;2022-07-23T13:39:43;33.50;54.20
40756;DHT22;26461;45.630;9.418;2022-07-23T13:43:11;33.60;54.40
40756;DHT22;26461;45.630;9.418;2022-07-23T13:46:27;33.60;54.20
40756;DHT22;26461;45.630;9.418;2022-07-23T13:49:33;33.60;54.40
40756;DHT22;26461;45.630;9.418;2022-07-23T13:52:42;33.70;54.10
40756;DHT22;26461;45.630;9.418;2022-07-23T13:55:52;33.70;54.00
40756;DHT22;26461;45.630;9.418;2022-07-23T13:59:10;33.70;54.00
40756;DHT22;26461;45.630;9.418;2022-07-23T14:02:24;33.80;53.90
40756;DHT22;26461;45.630;9.418;2022-07-23T14:05:46;33.90;54.00
40756;DHT22;26461;45.630;9.418;2022-07-23T14:09:00;34.00;54.10
40756;DHT22;26461;45.630;9.418;2022-07-23T14:12:12;34.00;53.90
40756;DHT22;26461;45.630;9.418;2022-07-23T14:15:28;34.10;54.20
40756;DHT22;26461;45.630;9.418;2022-07-23T14:18:53;34.20;54.50
40756;DHT22;26461;45.630;9.418;2022-07-23T14:22:14;34.30;54.40
40756;DHT22;26461;45.630;9.418;2022-07-23T14:25:32;34.40;54.10
40756;DHT22;26461;45.630;9.418;2022-07-23T14:28:41;34.50;54.00
40756;DHT22;26461;45.630;9.418;2022-07-23T14:32:02;34.60;54.20
40756;DHT22;26461;45.630;9.418;2022-07-23T14:35:12;34.70;54.50
40756;DHT22;26461;45.630;9.418;2022-07-23T14:38:23;34.70;53.60
40756;DHT22;26461;45.630;9.418;2022-07-23T14:41:30;34.70;53.40
40756;DHT22;26461;45.630;9.418;2022-07-23T14:44:45;34.80;53.60
40756;DHT22;26461;45.630;9.418;2022-07-23T14:47:51;34.70;53.60
40756;DHT22;26461;45.630;9.418;2022-07-23T14:51:08;34.70;53.70
40756;DHT22;26461;45.630;9.418;2022-07-23T14:54:20;34.80;53.80
40756;DHT22;26461;45.630;9.418;2022-07-23T14:57:33;34.80;53.90
40756;DHT22;26461;45.630;9.418;2022-07-23T15:00:50;34.90;54.00
40756;DHT22;26461;45.630;9.418;2022-07-23T15:04:09;35.00;54.20
40756;DHT22;26461;45.630;9.418;2022-07-23T15:07:27;35.10;52.90
40756;DHT22;26461;45.630;9.418;2022-07-23T15:10:43;35.10;52.70
40756;DHT22;26461;45.630;9.418;2022-07-23T15:13:58;35.10;52.50
40756;DHT22;26461;45.630;9.418;2022-07-23T15:17:05;35.10;52.10
40756;DHT22;26461;45.630;9.418;2022-07-23T15:20:19;35.10;52.00
40756;DHT22;26461;45.630;9.418;2022-07-23T15:23:25;35.10;52.00
40756;DHT22;26461;45.630;9.418;2022-07-23T15:26:34;35.00;51.90
40756;DHT22;26461;45.630;9.418;2022-07-23T15:29:52;35.10;52.80
40756;DHT22;26461;45.630;9.418;2022-07-23T15:33:05;35.10;54.00
40756;DHT22;26461;45.630;9.418;2022-07-23T15:36:20;35.00;55.40
40756;DHT22;26461;45.630;9.418;2022-07-23T15:39:32;34.90;55.10
40756;DHT22;26461;45.630;9.418;2022-07-23T15:42:50;34.90;54.70
40756;DHT22;26461;45.630;9.418;2022-07-23T15:45:58;34.90;54.20
40756;DHT22;26461;45.630;9.418;2022-07-23T15:49:13;34.90;55.10
40756;DHT22;26461;45.630;9.418;2022-07-23T15:52:22;34.90;54.60
40756;DHT22;26461;45.630;9.418;2022-07-23T15:55:33;34.90;55.00
40756;DHT22;26461;45.630;9.418;2022-07-23T15:58:45;34.90;55.10
40756;DHT22;26461;45.630;9.418;2022-07-23T16:01:57;34.90;55.10
40756;DHT22;26461;45.630;9.418;2022-07-23T16:05:08;34.80;54.90
40756;DHT22;26461;45.630;9.418;2022-07-23T16:08:21;34.70;55.10
40756;DHT22;26461;45.630;9.418;2022-07-23T16:11:37;34.70;55.30
40756;DHT22;26461;45.630;9.418;2022-07-23T16:14:55;34.70;55.60
40756;DHT22;26461;45.630;9.418;2022-07-23T16:18:03;34.70;55.80
40756;DHT22;26461;45.630;9.418;2022-07-23T16:21:21;34.80;55.40
40756;DHT22;26461;45.630;9.418;2022-07-23T16:24:42;34.70;55.10
40756;DHT22;26461;45.630;9.418;2022-07-23T16:28:03;34.70;54.90
40756;DHT22;26461;45.630;9.418;2022-07-23T16:31:15;34.60;55.10
40756;DHT22;26461;45.630;9.418;2022-07-23T16:34:27;34.60;55.20
40756;DHT22;26461;45.630;9.418;2022-07-23T16:37:42;34.50;55.30
40756;DHT22;26461;45.630;9.418;2022-07-23T16:40:57;34.40;55.30
40756;DHT22;26461;45.630;9.418;2022-07-23T16:44:09;34.30;55.20
40756;DHT22;26461;45.630;9.418;2022-07-23T16:47:20;34.30;55.40
40756;DHT22;26461;45.630;9.418;2022-07-23T16:50:27;34.40;55.50
40756;DHT22;26461;45.630;9.418;2022-07-23T16:53:39;34.60;55.10
40756;DHT22;26461;45.630;9.418;2022-07-23T16:56:45;34.70;55.30
40756;DHT22;26461;45.630;9.418;2022-07-23T17:00:05;35.00;55.10
40756;DHT22;26461;45.630;9.418;2022-07-23T17:03:12;35.10;54.90
40756;DHT22;26461;45.630;9.418;2022-07-23T17:06:34;35.30;54.70
40756;DHT22;26461;45.630;9.418;2022-07-23T17:09:44;35.30;54.60
40756;DHT22;26461;45.630;9.418;2022-07-23T17:12:54;35.10;54.50
40756;DHT22;26461;45.630;9.418;2022-07-23T17:16:04;35.00;54.50
40756;DHT22;26461;45.630;9.418;2022-07-23T17:19:16;34.80;54.60
40756;DHT22;26461;45.630;9.418;2022-07-23T17:22:27;34.60;54.80
40756;DHT22;26461;45.630;9.418;2022-07-23T17:25:39;34.60;55.00
40756;DHT22;26461;45.630;9.418;2022-07-23T17:28:49;34.50;54.70
40756;DHT22;26461;45.630;9.418;2022-07-23T17:32:02;34.40;54.90
40756;DHT22;26461;45.630;9.418;2022-07-23T17:35:12;34.30;55.10
40756;DHT22;26461;45.630;9.418;2022-07-23T17:38:19;34.20;55.50
40756;DHT22;26461;45.630;9.418;2022-07-23T17:41:37;34.20;55.50
40756;DHT22;26461;45.630;9.418;2022-07-23T17:44:54;34.20;55.70
40756;DHT22;26461;45.630;9.418;2022-07-23T17:48:06;34.40;56.10
40756;DHT22;26461;45.630;9.418;2022-07-23T17:51:20;34.60;56.20
40756;DHT22;26461;45.630;9.418;2022-07-23T17:54:33;34.80;56.10
40756;DHT22;26461;45.630;9.418;2022-07-23T17:57:55;34.90;55.80
40756;DHT22;26461;45.630;9.418;2022-07-23T18:01:12;35.10;55.70
40756;DHT22;26461;45.630;9.418;2022-07-23T18:04:28;35.10;55.70
40756;DHT22;26461;45.630;9.418;2022-07-23T18:07:40;35.10;56.30
40756;DHT22;26461;45.630;9.418;2022-07-23T18:10:59;35.10;56.80
40756;DHT22;26461;45.630;9.418;2022-07-23T18:14:07;35.10;57.30
40756;DHT22;26461;45.630;9.418;2022-07-23T18:17:13;34.90;57.40
40756;DHT22;26461;45.630;9.418;2022-07-23T18:20:22;34.80;57.70
40756;DHT22;26461;45.630;9.418;2022-07-23T18:23:43;34.60;57.90
40756;DHT22;26461;45.630;9.418;2022-07-23T18:27:01;34.50;58.00
40756;DHT22;26461;45.630;9.418;2022-07-23T18:30:13;34.50;58.00
40756;DHT22;26461;45.630;9.418;2022-07-23T18:33:25;34.40;57.80
40756;DHT22;26461;45.630;9.418;2022-07-23T18:36:36;34.40;57.70
40756;DHT22;26461;45.630;9.418;2022-07-23T18:39:46;34.30;57.70
40756;DHT22;26461;45.630;9.418;2022-07-23T18:42:57;34.20;57.80
40756;DHT22;26461;45.630;9.418;2022-07-23T18:46:04;34.10;57.90
40756;DHT22;26461;45.630;9.418;2022-07-23T18:49:13;34.00;58.30
40756;DHT22;26461;45.630;9.418;2022-07-23T18:52:24;33.90;58.70
40756;DHT22;26461;45.630;9.418;2022-07-23T18:55:36;33.80;59.00
40756;DHT22;26461;45.630;9.418;2022-07-23T18:58:54;33.60;59.30
40756;DHT22;26461;45.630;9.418;2022-07-23T19:02:00;33.50;59.50
40756;DHT22;26461;45.630;9.418;2022-07-23T19:05:07;33.40;59.90
40756;DHT22;26461;45.630;9.418;2022-07-23T19:08:25;33.30;60.30
40756;DHT22;26461;45.630;9.418;2022-07-23T19:11:32;33.30;60.40
40756;DHT22;26461;45.630;9.418;2022-07-23T19:14:43;33.20;60.70
40756;DHT22;26461;45.630;9.418;2022-07-23T19:17:54;33.10;60.80
40756;DHT22;26461;45.630;9.418;2022-07-23T19:21:11;33.00;61.20
40756;DHT22;26461;45.630;9.418;2022-07-23T19:24:17;33.00;61.30
40756;DHT22;26461;45.630;9.418;2022-07-23T19:27:24;32.90;61.30
40756;DHT22;26461;45.630;9.418;2022-07-23T19:30:41;32.80;61.40
40756;DHT22;26461;45.630;9.418;2022-07-23T19:33:54;32.80;61.50
40756;DHT22;26461;45.630;9.418;2022-07-23T19:37:11;32.70;61.70
40756;DHT22;26461;45.630;9.418;2022-07-23T19:40:26;32.60;62.30
40756;DHT22;26461;45.630;9.418;2022-07-23T19:43:37;32.60;63.30
40756;DHT22;26461;45.630;9.418;2022-07-23T19:46:50;32.50;64.70
40756;DHT22;26461;45.630;9.418;2022-07-23T19:49:57;32.50;66.30
40756;DHT22;26461;45.630;9.418;2022-07-23T19:53:04;32.40;67.80
40756;DHT22;26461;45.630;9.418;2022-07-23T19:56:12;32.30;68.70
40756;DHT22;26461;45.630;9.418;2022-07-23T19:59:19;32.20;69.40
40756;DHT22;26461;45.630;9.418;2022-07-23T20:02:34;32.20;69.70
40756;DHT22;26461;45.630;9.418;2022-07-23T20:05:46;32.10;69.80
40756;DHT22;26461;45.630;9.418;2022-07-23T20:08:55;32.10;70.20
40756;DHT22;26461;45.630;9.418;2022-07-23T20:12:02;32.00;70.60
40756;DHT22;26461;45.630;9.418;2022-07-23T20:15:14;32.00;71.20
40756;DHT22;26461;45.630;9.418;2022-07-23T20:18:26;31.90;71.30
40756;DHT22;26461;45.630;9.418;2022-07-23T20:21:45;31.80;71.50
40756;DHT22;26461;45.630;9.418;2022-07-23T20:25:05;31.80;71.60
40756;DHT22;26461;45.630;9.418;2022-07-23T20:28:27;31.70;71.70
40756;DHT22;26461;45.630;9.418;2022-07-23T20:31:44;31.60;71.60
40756;DHT22;26461;45.630;9.418;2022-07-23T20:34:57;31.50;71.40
40756;DHT22;26461;45.630;9.418;2022-07-23T20:38:06;31.50;71.30
40756;DHT22;26461;45.630;9.418;2022-07-23T20:41:15;31.40;71.30
40756;DHT22;26461;45.630;9.418;2022-07-23T20:44:27;31.30;71.40
40756;DHT22;26461;45.630;9.418;2022-07-23T20:47:40;31.20;71.80